sensor_id;sensor_type;location;lat;lon;timestamp;P1;durP1;ratioP1;P2;durP2;ratioP2
7289;SDS011;63176;52.678;13.250;2023-05-10T00:00:41;4.33;;;3.13;;
7289;SDS011;63176;52.678;13.250;2023-05-10T00:03:07;4.60;;;3.30;;
7289;SDS011;63176;52.678;13.250;2023-05-10T00:05:32;5.77;;;4.03;;
7289;SDS011;63176;52.678;13.250;2023-05-10T00:07:58;5.37;;;3.60;;
7289;SDS011;63176;52.678;13.250;2023-05-10T00:10:24;8.63;;;3.07;;
7289;SDS011;63176;52.678;13.250;2023-05-10T00:12:49;4.60;;;3.10;;
7289;SDS011;63176;52.678;13.250;2023-05-10T00:15:15;3.70;;;3.23;;
7289;SDS011;63176;52.678;13.250;2023-05-10T00:17:41;4.10;;;3.37;;
7289;SDS011;63176;52.678;13.250;2023-05-10T00:20:06;5.50;;;3.70;;
7289;SDS011;63176;52.678;13.250;2023-05-10T00:22:32;4.30;;;3.47;;
7289;SDS011;63176;52.678;13.250;2023-05-10T00:24:58;5.57;;;3.83;;
7289;SDS011;63176;52.678;13.250;2023-05-10T00:27:24;4.13;;;3.13;;
7289;SDS011;63176;52.678;13.250;2023-05-10T00:29:50;6.27;;;3.43;;
7289;SDS011;63176;52.678;13.250;2023-05-10T00:32:15;6.80;;;3.43;;
7289;SDS011;63176;52.678;13.250;2023-05-10T00:34:41;3.57;;;3.27;;
7289;SDS011;63176;52.678;13.250;2023-05-10T00:37:07;4.78;;;3.55;;
7289;SDS011;63176;52.678;13.250;2023-05-10T00:39:33;7.83;;;4.10;;
7289;SDS011;63176;52.678;13.250;2023-05-10T00:41:59;5.03;;;3.20;;
7289;SDS011;63176;52.678;13.250;2023-05-10T00:44:25;5.15;;;3.20;;
7289;SDS011;63176;52.678;13.250;2023-05-10T00:46:51;4.93;;;3.47;;
7289;SDS011;63176;52.678;13.250;2023-05-10T00:49:17;4.37;;;3.90;;
7289;SDS011;63176;52.678;13.250;2023-05-10T00:51:43;4.17;;;3.40;;
7289;SDS011;63176;52.678;13.250;2023-05-10T00:54:11;3.77;;;3.30;;
7289;SDS011;63176;52.678;13.250;2023-05-10T00:56:38;6.93;;;3.13;;
7289;SDS011;63176;52.678;13.250;2023-05-10T00:59:05;4.45;;;3.78;;
7289;SDS011;63176;52.678;13.250;2023-05-10T01:01:31;5.13;;;3.67;;
7289;SDS011;63176;52.678;13.250;2023-05-10T01:03:57;3.37;;;2.70;;
7289;SDS011;63176;52.678;13.250;2023-05-10T01:06:23;6.00;;;3.28;;
7289;SDS011;63176;52.678;13.250;2023-05-10T01:08:49;7.37;;;4.17;;
7289;SDS011;63176;52.678;13.250;2023-05-10T01:11:15;3.65;;;3.10;;
7289;SDS011;63176;52.678;13.250;2023-05-10T01:13:42;5.10;;;3.43;;
7289;SDS011;63176;52.678;13.250;2023-05-10T01:16:11;4.88;;;3.97;;
7289;SDS011;63176;52.678;13.250;2023-05-10T01:18:38;4.97;;;3.80;;
7289;SDS011;63176;52.678;13.250;2023-05-10T01:26:45;5.90;;;4.00;;
7289;SDS011;63176;52.678;13.250;2023-05-10T01:34:57;3.90;;;3.50;;
7289;SDS011;63176;52.678;13.250;2023-05-10T01:37:27;4.75;;;3.75;;
7289;SDS011;63176;52.678;13.250;2023-05-10T01:43:01;4.55;;;4.15;;
7289;SDS011;63176;52.678;13.250;2023-05-10T01:45:34;11.55;;;4.30;;
7289;SDS011;63176;52.678;13.250;2023-05-10T01:48:11;3.83;;;3.35;;
7289;SDS011;63176;52.678;13.250;2023-05-10T01:50:39;4.80;;;3.90;;
7289;SDS011;63176;52.678;13.250;2023-05-10T01:53:08;5.50;;;3.60;;
7289;SDS011;63176;52.678;13.250;2023-05-10T01:55:41;4.57;;;3.60;;
7289;SDS011;63176;52.678;13.250;2023-05-10T01:58:17;5.63;;;3.83;;
7289;SDS011;63176;52.678;13.250;2023-05-10T02:00:47;4.22;;;3.55;;
7289;SDS011;63176;52.678;13.250;2023-05-10T02:03:14;4.78;;;3.95;;
7289;SDS011;63176;52.678;13.250;2023-05-10T02:05:43;4.35;;;3.40;;
7289;SDS011;63176;52.678;13.250;2023-05-10T02:08:11;9.93;;;3.45;;
7289;SDS011;63176;52.678;13.250;2023-05-10T02:10:38;5.80;;;3.38;;
7289;SDS011;63176;52.678;13.250;2023-05-10T02:13:05;9.43;;;4.50;;
7289;SDS011;63176;52.678;13.250;2023-05-10T02:15:32;5.65;;;3.95;;
7289;SDS011;63176;52.678;13.250;2023-05-10T02:18:00;5.75;;;3.65;;
7289;SDS011;63176;52.678;13.250;2023-05-10T02:20:27;6.15;;;3.88;;
7289;SDS011;63176;52.678;13.250;2023-05-10T02:22:54;3.80;;;3.47;;
7289;SDS011;63176;52.678;13.250;2023-05-10T02:25:22;4.85;;;3.63;;
7289;SDS011;63176;52.678;13.250;2023-05-10T02:27:49;5.22;;;3.20;;
7289;SDS011;63176;52.678;13.250;2023-05-10T02:30:16;5.60;;;3.78;;
7289;SDS011;63176;52.678;13.250;2023-05-10T02:32:43;4.93;;;3.60;;
7289;SDS011;63176;52.678;13.250;2023-05-10T02:35:10;7.03;;;4.28;;
7289;SDS011;63176;52.678;13.250;2023-05-10T02:37:37;5.70;;;4.10;;
7289;SDS011;63176;52.678;13.250;2023-05-10T02:40:04;4.78;;;3.80;;
7289;SDS011;63176;52.678;13.250;2023-05-10T02:42:32;4.38;;;3.58;;
7289;SDS011;63176;52.678;13.250;2023-05-10T02:45:01;5.53;;;3.50;;
7289;SDS011;63176;52.678;13.250;2023-05-10T02:47:28;3.53;;;3.22;;
7289;SDS011;63176;52.678;13.250;2023-05-10T02:49:54;5.15;;;3.65;;
7289;SDS011;63176;52.678;13.250;2023-05-10T02:52:25;5.00;;;3.90;;
7289;SDS011;63176;52.678;13.250;2023-05-10T02:54:54;3.70;;;3.40;;
7289;SDS011;63176;52.678;13.250;2023-05-10T02:57:25;8.80;;;3.80;;
7289;SDS011;63176;52.678;13.250;2023-05-10T02:59:53;6.05;;;3.58;;
7289;SDS011;63176;52.678;13.250;2023-05-10T03:02:20;5.53;;;3.83;;
7289;SDS011;63176;52.678;13.250;2023-05-10T03:04:46;3.57;;;3.17;;
7289;SDS011;63176;52.678;13.250;2023-05-10T03:07:12;8.63;;;3.87;;
7289;SDS011;63176;52.678;13.250;2023-05-10T03:09:38;4.18;;;3.65;;
7289;SDS011;63176;52.678;13.250;2023-05-10T03:15:03;4.50;;;3.75;;
7289;SDS011;63176;52.678;13.250;2023-05-10T03:17:41;4.85;;;3.42;;
7289;SDS011;63176;52.678;13.250;2023-05-10T03:20:32;3.55;;;2.85;;
7289;SDS011;63176;52.678;13.250;2023-05-10T03:23:21;3.90;;;3.08;;
7289;SDS011;63176;52.678;13.250;2023-05-10T03:26:23;6.32;;;3.85;;
7289;SDS011;63176;52.678;13.250;2023-05-10T03:28:50;5.40;;;4.15;;
7289;SDS011;63176;52.678;13.250;2023-05-10T03:31:17;4.70;;;3.53;;
7289;SDS011;63176;52.678;13.250;2023-05-10T03:33:47;3.67;;;3.30;;
7289;SDS011;63176;52.678;13.250;2023-05-10T03:36:16;6.05;;;3.80;;
7289;SDS011;63176;52.678;13.250;2023-05-10T03:38:42;3.53;;;3.22;;
7289;SDS011;63176;52.678;13.250;2023-05-10T03:41:08;4.03;;;3.00;;
7289;SDS011;63176;52.678;13.250;2023-05-10T03:43:33;6.13;;;3.50;;
7289;SDS011;63176;52.678;13.250;2023-05-10T03:46:01;3.57;;;3.23;;
7289;SDS011;63176;52.678;13.250;2023-05-10T03:48:30;6.10;;;3.97;;
7289;SDS011;63176;52.678;13.250;2023-05-10T03:50:58;3.75;;;3.38;;
7289;SDS011;63176;52.678;13.250;2023-05-10T03:53:24;4.40;;;3.37;;
7289;SDS011;63176;52.678;13.250;2023-05-10T03:55:53;3.63;;;3.03;;
7289;SDS011;63176;52.678;13.250;2023-05-10T03:58:18;3.37;;;3.00;;
7289;SDS011;63176;52.678;13.250;2023-05-10T04:00:44;5.03;;;3.33;;
7289;SDS011;63176;52.678;13.250;2023-05-10T04:03:13;3.60;;;3.30;;
7289;SDS011;63176;52.678;13.250;2023-05-10T04:05:39;4.32;;;3.08;;
7289;SDS011;63176;52.678;13.250;2023-05-10T04:08:05;7.00;;;3.20;;
7289;SDS011;63176;52.678;13.250;2023-05-10T04:10:31;3.50;;;3.17;;
7289;SDS011;63176;52.678;13.250;2023-05-10T04:12:56;5.70;;;3.10;;
7289;SDS011;63176;52.678;13.250;2023-05-10T04:15:22;3.43;;;2.70;;
7289;SDS011;63176;52.678;13.250;2023-05-10T04:17:48;3.60;;;3.30;;
7289;SDS011;63176;52.678;13.250;2023-05-10T04:20:13;4.30;;;3.37;;
7289;SDS011;63176;52.678;13.250;2023-05-10T04:22:39;5.32;;;3.63;;
7289;SDS011;63176;52.678;13.250;2023-05-10T04:25:06;3.40;;;3.10;;
7289;SDS011;63176;52.678;13.250;2023-05-10T04:27:32;6.68;;;3.53;;
7289;SDS011;63176;52.678;13.250;2023-05-10T04:29:58;5.17;;;3.40;;
7289;SDS011;63176;52.678;13.250;2023-05-10T04:32:23;5.50;;;3.63;;
7289;SDS011;63176;52.678;13.250;2023-05-10T04:34:49;3.90;;;3.00;;
7289;SDS011;63176;52.678;13.250;2023-05-10T04:37:16;4.88;;;3.30;;
7289;SDS011;63176;52.678;13.250;2023-05-10T04:39:42;6.40;;;3.13;;
7289;SDS011;63176;52.678;13.250;2023-05-10T04:42:07;5.03;;;2.70;;
7289;SDS011;63176;52.678;13.250;2023-05-10T04:44:33;3.17;;;2.70;;
7289;SDS011;63176;52.678;13.250;2023-05-10T04:46:59;4.13;;;3.40;;
7289;SDS011;63176;52.678;13.250;2023-05-10T04:49:25;6.20;;;3.57;;
7289;SDS011;63176;52.678;13.250;2023-05-10T04:51:50;4.10;;;2.53;;
7289;SDS011;63176;52.678;13.250;2023-05-10T04:54:16;3.93;;;2.80;;
7289;SDS011;63176;52.678;13.250;2023-05-10T04:56:42;6.73;;;2.80;;
7289;SDS011;63176;52.678;13.250;2023-05-10T04:59:07;6.23;;;2.93;;
7289;SDS011;63176;52.678;13.250;2023-05-10T05:01:33;5.20;;;3.37;;
7289;SDS011;63176;52.678;13.250;2023-05-10T05:03:58;7.50;;;2.57;;
7289;SDS011;63176;52.678;13.250;2023-05-10T05:06:24;5.47;;;3.43;;
7289;SDS011;63176;52.678;13.250;2023-05-10T05:08:50;4.00;;;2.67;;
7289;SDS011;63176;52.678;13.250;2023-05-10T05:11:16;5.67;;;3.60;;
7289;SDS011;63176;52.678;13.250;2023-05-10T05:13:42;4.95;;;2.80;;
7289;SDS011;63176;52.678;13.250;2023-05-10T05:16:08;3.80;;;2.97;;
7289;SDS011;63176;52.678;13.250;2023-05-10T05:18:34;3.43;;;3.13;;
7289;SDS011;63176;52.678;13.250;2023-05-10T05:20:59;6.83;;;2.93;;
7289;SDS011;63176;52.678;13.250;2023-05-10T05:23:25;2.63;;;2.42;;
7289;SDS011;63176;52.678;13.250;2023-05-10T05:25:52;4.33;;;2.60;;
7289;SDS011;63176;52.678;13.250;2023-05-10T05:28:18;4.40;;;2.13;;
7289;SDS011;63176;52.678;13.250;2023-05-10T05:30:45;4.18;;;3.30;;
7289;SDS011;63176;52.678;13.250;2023-05-10T05:33:11;6.27;;;2.70;;
7289;SDS011;63176;52.678;13.250;2023-05-10T05:35:38;4.50;;;2.67;;
7289;SDS011;63176;52.678;13.250;2023-05-10T05:38:03;4.73;;;2.60;;
7289;SDS011;63176;52.678;13.250;2023-05-10T05:40:29;3.40;;;2.53;;
7289;SDS011;63176;52.678;13.250;2023-05-10T05:42:54;2.43;;;2.23;;
7289;SDS011;63176;52.678;13.250;2023-05-10T05:45:20;4.70;;;2.50;;
7289;SDS011;63176;52.678;13.250;2023-05-10T05:47:46;2.97;;;2.43;;
7289;SDS011;63176;52.678;13.250;2023-05-10T05:50:12;3.90;;;2.80;;
7289;SDS011;63176;52.678;13.250;2023-05-10T05:52:37;6.20;;;2.30;;
7289;SDS011;63176;52.678;13.250;2023-05-10T05:55:03;2.50;;;2.20;;
7289;SDS011;63176;52.678;13.250;2023-05-10T05:57:29;2.93;;;2.13;;
7289;SDS011;63176;52.678;13.250;2023-05-10T05:59:54;4.00;;;2.30;;
7289;SDS011;63176;52.678;13.250;2023-05-10T06:02:20;2.30;;;2.10;;
7289;SDS011;63176;52.678;13.250;2023-05-10T06:04:46;5.30;;;2.70;;
7289;SDS011;63176;52.678;13.250;2023-05-10T06:07:12;3.17;;;1.93;;
7289;SDS011;63176;52.678;13.250;2023-05-10T06:09:37;3.63;;;1.90;;
7289;SDS011;63176;52.678;13.250;2023-05-10T06:12:03;2.13;;;2.00;;
7289;SDS011;63176;52.678;13.250;2023-05-10T06:14:28;4.77;;;2.20;;
7289;SDS011;63176;52.678;13.250;2023-05-10T06:16:54;6.67;;;2.50;;
7289;SDS011;63176;52.678;13.250;2023-05-10T06:19:20;2.57;;;2.10;;
7289;SDS011;63176;52.678;13.250;2023-05-10T06:21:45;2.50;;;2.20;;
7289;SDS011;63176;52.678;13.250;2023-05-10T06:24:11;3.43;;;1.97;;
7289;SDS011;63176;52.678;13.250;2023-05-10T06:26:36;2.27;;;2.07;;
7289;SDS011;63176;52.678;13.250;2023-05-10T06:29:02;2.30;;;1.63;;
7289;SDS011;63176;52.678;13.250;2023-05-10T06:31:27;2.47;;;2.03;;
7289;SDS011;63176;52.678;13.250;2023-05-10T06:33:53;3.43;;;2.13;;
7289;SDS011;63176;52.678;13.250;2023-05-10T06:36:19;5.97;;;1.80;;
7289;SDS011;63176;52.678;13.250;2023-05-10T06:38:45;4.33;;;2.03;;
7289;SDS011;63176;52.678;13.250;2023-05-10T06:41:10;2.40;;;2.03;;
7289;SDS011;63176;52.678;13.250;2023-05-10T06:43:36;1.87;;;1.67;;
7289;SDS011;63176;52.678;13.250;2023-05-10T06:46:05;2.57;;;2.10;;
7289;SDS011;63176;52.678;13.250;2023-05-10T06:48:31;3.13;;;1.80;;
7289;SDS011;63176;52.678;13.250;2023-05-10T06:50:57;3.57;;;1.97;;
7289;SDS011;63176;52.678;13.250;2023-05-10T06:53:23;2.60;;;2.10;;
7289;SDS011;63176;52.678;13.250;2023-05-10T06:55:49;3.63;;;1.87;;
7289;SDS011;63176;52.678;13.250;2023-05-10T06:58:15;4.33;;;2.10;;
7289;SDS011;63176;52.678;13.250;2023-05-10T07:00:40;27.83;;;3.27;;
7289;SDS011;63176;52.678;13.250;2023-05-10T07:03:08;1.90;;;1.47;;
7289;SDS011;63176;52.678;13.250;2023-05-10T07:05:37;2.37;;;1.53;;
7289;SDS011;63176;52.678;13.250;2023-05-10T07:08:02;1.90;;;1.53;;
7289;SDS011;63176;52.678;13.250;2023-05-10T07:10:28;1.37;;;1.27;;
7289;SDS011;63176;52.678;13.250;2023-05-10T07:12:54;2.03;;;1.70;;
7289;SDS011;63176;52.678;13.250;2023-05-10T07:15:20;2.20;;;2.00;;
7289;SDS011;63176;52.678;13.250;2023-05-10T07:17:46;2.17;;;1.80;;
7289;SDS011;63176;52.678;13.250;2023-05-10T07:20:11;1.63;;;1.53;;
7289;SDS011;63176;52.678;13.250;2023-05-10T07:22:37;2.50;;;1.80;;
7289;SDS011;63176;52.678;13.250;2023-05-10T07:25:03;3.17;;;1.70;;
7289;SDS011;63176;52.678;13.250;2023-05-10T07:27:29;3.33;;;2.03;;
7289;SDS011;63176;52.678;13.250;2023-05-10T07:29:54;2.00;;;1.90;;
7289;SDS011;63176;52.678;13.250;2023-05-10T07:32:21;2.57;;;2.10;;
7289;SDS011;63176;52.678;13.250;2023-05-10T07:34:47;1.73;;;1.60;;
7289;SDS011;63176;52.678;13.250;2023-05-10T07:37:12;5.23;;;1.60;;
7289;SDS011;63176;52.678;13.250;2023-05-10T07:39:38;1.47;;;1.37;;
7289;SDS011;63176;52.678;13.250;2023-05-10T07:42:03;2.00;;;1.63;;
7289;SDS011;63176;52.678;13.250;2023-05-10T07:44:29;2.40;;;2.07;;
7289;SDS011;63176;52.678;13.250;2023-05-10T07:46:55;3.43;;;2.03;;
7289;SDS011;63176;52.678;13.250;2023-05-10T07:49:20;6.90;;;2.00;;
7289;SDS011;63176;52.678;13.250;2023-05-10T07:51:49;3.50;;;1.77;;
7289;SDS011;63176;52.678;13.250;2023-05-10T07:54:15;3.30;;;1.70;;
7289;SDS011;63176;52.678;13.250;2023-05-10T07:56:40;4.10;;;1.90;;
7289;SDS011;63176;52.678;13.250;2023-05-10T07:59:14;1.67;;;1.33;;
7289;SDS011;63176;52.678;13.250;2023-05-10T08:01:40;2.10;;;1.83;;
7289;SDS011;63176;52.678;13.250;2023-05-10T08:04:06;6.13;;;2.03;;
7289;SDS011;63176;52.678;13.250;2023-05-10T08:06:32;3.07;;;1.80;;
7289;SDS011;63176;52.678;13.250;2023-05-10T08:08:58;2.20;;;1.47;;
7289;SDS011;63176;52.678;13.250;2023-05-10T08:11:24;4.70;;;2.00;;
7289;SDS011;63176;52.678;13.250;2023-05-10T08:13:50;2.50;;;2.30;;
7289;SDS011;63176;52.678;13.250;2023-05-10T08:16:16;1.97;;;1.87;;
7289;SDS011;63176;52.678;13.250;2023-05-10T08:18:43;2.30;;;1.90;;
7289;SDS011;63176;52.678;13.250;2023-05-10T08:21:11;4.07;;;1.73;;
7289;SDS011;63176;52.678;13.250;2023-05-10T08:23:37;1.70;;;1.60;;
7289;SDS011;63176;52.678;13.250;2023-05-10T08:26:03;3.27;;;2.00;;
7289;SDS011;63176;52.678;13.250;2023-05-10T08:28:28;2.87;;;2.10;;
7289;SDS011;63176;52.678;13.250;2023-05-10T08:30:54;3.83;;;3.53;;
7289;SDS011;63176;52.678;13.250;2023-05-10T08:33:20;3.90;;;2.03;;
7289;SDS011;63176;52.678;13.250;2023-05-10T08:35:46;1.77;;;1.67;;
7289;SDS011;63176;52.678;13.250;2023-05-10T08:38:11;3.70;;;2.10;;
7289;SDS011;63176;52.678;13.250;2023-05-10T08:40:38;2.70;;;1.87;;
7289;SDS011;63176;52.678;13.250;2023-05-10T08:43:09;2.93;;;2.10;;
7289;SDS011;63176;52.678;13.250;2023-05-10T08:45:40;2.10;;;1.83;;
7289;SDS011;63176;52.678;13.250;2023-05-10T08:48:07;1.83;;;1.73;;
7289;SDS011;63176;52.678;13.250;2023-05-10T08:50:35;4.27;;;2.27;;
7289;SDS011;63176;52.678;13.250;2023-05-10T08:53:03;1.70;;;1.60;;
7289;SDS011;63176;52.678;13.250;2023-05-10T08:55:32;3.53;;;2.40;;
7289;SDS011;63176;52.678;13.250;2023-05-10T08:58:02;2.40;;;1.87;;
7289;SDS011;63176;52.678;13.250;2023-05-10T09:00:29;1.93;;;1.80;;
7289;SDS011;63176;52.678;13.250;2023-05-10T09:02:55;1.83;;;1.73;;
7289;SDS011;63176;52.678;13.250;2023-05-10T09:05:25;1.97;;;1.83;;
7289;SDS011;63176;52.678;13.250;2023-05-10T09:07:51;2.20;;;1.90;;
7289;SDS011;63176;52.678;13.250;2023-05-10T09:10:17;2.80;;;2.13;;
7289;SDS011;63176;52.678;13.250;2023-05-10T09:12:44;3.63;;;2.00;;
7289;SDS011;63176;52.678;13.250;2023-05-10T09:15:10;5.60;;;2.33;;
7289;SDS011;63176;52.678;13.250;2023-05-10T09:17:37;6.13;;;2.27;;
7289;SDS011;63176;52.678;13.250;2023-05-10T09:20:05;2.90;;;2.60;;
7289;SDS011;63176;52.678;13.250;2023-05-10T09:22:31;4.77;;;2.20;;
7289;SDS011;63176;52.678;13.250;2023-05-10T09:25:07;3.83;;;1.63;;
7289;SDS011;63176;52.678;13.250;2023-05-10T09:27:34;1.83;;;1.70;;
7289;SDS011;63176;52.678;13.250;2023-05-10T09:30:01;2.90;;;2.70;;
7289;SDS011;63176;52.678;13.250;2023-05-10T09:32:40;3.37;;;2.20;;
7289;SDS011;63176;52.678;13.250;2023-05-10T09:37:36;2.27;;;1.90;;
7289;SDS011;63176;52.678;13.250;2023-05-10T09:40:06;2.63;;;2.00;;
7289;SDS011;63176;52.678;13.250;2023-05-10T09:42:33;4.43;;;2.00;;
7289;SDS011;63176;52.678;13.250;2023-05-10T09:45:03;2.20;;;2.00;;
7289;SDS011;63176;52.678;13.250;2023-05-10T09:47:31;4.47;;;2.00;;
7289;SDS011;63176;52.678;13.250;2023-05-10T09:49:58;3.10;;;2.00;;
7289;SDS011;63176;52.678;13.250;2023-05-10T09:52:28;1.80;;;1.70;;
7289;SDS011;63176;52.678;13.250;2023-05-10T09:54:54;2.43;;;2.07;;
7289;SDS011;63176;52.678;13.250;2023-05-10T09:57:21;2.20;;;1.97;;
7289;SDS011;63176;52.678;13.250;2023-05-10T09:59:47;2.17;;;1.73;;
7289;SDS011;63176;52.678;13.250;2023-05-10T10:02:13;3.57;;;1.63;;
7289;SDS011;63176;52.678;13.250;2023-05-10T10:04:39;1.63;;;1.53;;
7289;SDS011;63176;52.678;13.250;2023-05-10T10:07:05;2.00;;;1.80;;
7289;SDS011;63176;52.678;13.250;2023-05-10T10:09:31;2.90;;;2.10;;
7289;SDS011;63176;52.678;13.250;2023-05-10T10:12:02;2.20;;;1.77;;
7289;SDS011;63176;52.678;13.250;2023-05-10T10:14:28;1.60;;;1.50;;
7289;SDS011;63176;52.678;13.250;2023-05-10T10:16:54;2.00;;;1.80;;
7289;SDS011;63176;52.678;13.250;2023-05-10T10:19:21;2.10;;;1.80;;
7289;SDS011;63176;52.678;13.250;2023-05-10T10:21:47;1.90;;;1.80;;
7289;SDS011;63176;52.678;13.250;2023-05-10T10:24:14;5.90;;;2.33;;
7289;SDS011;63176;52.678;13.250;2023-05-10T10:26:40;5.50;;;1.97;;
7289;SDS011;63176;52.678;13.250;2023-05-10T10:29:24;2.30;;;1.70;;
7289;SDS011;63176;52.678;13.250;2023-05-10T10:34:54;2.40;;;2.20;;
7289;SDS011;63176;52.678;13.250;2023-05-10T10:37:21;3.63;;;1.83;;
7289;SDS011;63176;52.678;13.250;2023-05-10T10:39:48;5.17;;;1.70;;
7289;SDS011;63176;52.678;13.250;2023-05-10T10:42:14;1.60;;;1.50;;
7289;SDS011;63176;52.678;13.250;2023-05-10T10:45:12;5.93;;;1.90;;
7289;SDS011;63176;52.678;13.250;2023-05-10T10:47:38;2.03;;;1.77;;
7289;SDS011;63176;52.678;13.250;2023-05-10T10:50:04;1.67;;;1.57;;
7289;SDS011;63176;52.678;13.250;2023-05-10T10:52:42;1.97;;;1.87;;
7289;SDS011;63176;52.678;13.250;2023-05-10T10:55:18;1.60;;;1.50;;
7289;SDS011;63176;52.678;13.250;2023-05-10T10:57:48;2.50;;;1.83;;
7289;SDS011;63176;52.678;13.250;2023-05-10T11:02:59;3.00;;;2.10;;
7289;SDS011;63176;52.678;13.250;2023-05-10T11:10:54;2.20;;;1.90;;
7289;SDS011;63176;52.678;13.250;2023-05-10T11:13:43;2.13;;;1.93;;
7289;SDS011;63176;52.678;13.250;2023-05-10T11:21:26;4.83;;;1.90;;
7289;SDS011;63176;52.678;13.250;2023-05-10T11:23:55;6.23;;;1.97;;
7289;SDS011;63176;52.678;13.250;2023-05-10T11:26:26;2.27;;;1.67;;
7289;SDS011;63176;52.678;13.250;2023-05-10T11:28:56;1.87;;;1.67;;
7289;SDS011;63176;52.678;13.250;2023-05-10T11:31:23;4.33;;;2.10;;
7289;SDS011;63176;52.678;13.250;2023-05-10T11:33:52;1.70;;;1.60;;
7289;SDS011;63176;52.678;13.250;2023-05-10T11:36:20;1.90;;;1.80;;
7289;SDS011;63176;52.678;13.250;2023-05-10T11:38:49;2.50;;;2.07;;
7289;SDS011;63176;52.678;13.250;2023-05-10T11:41:15;4.13;;;1.97;;
7289;SDS011;63176;52.678;13.250;2023-05-10T11:43:43;1.93;;;1.67;;
7289;SDS011;63176;52.678;13.250;2023-05-10T11:46:12;2.20;;;2.00;;
7289;SDS011;63176;52.678;13.250;2023-05-10T11:48:38;2.10;;;1.87;;
7289;SDS011;63176;52.678;13.250;2023-05-10T11:51:04;2.00;;;1.70;;
7289;SDS011;63176;52.678;13.250;2023-05-10T11:53:34;3.03;;;2.10;;
7289;SDS011;63176;52.678;13.250;2023-05-10T11:56:06;3.17;;;1.90;;
7289;SDS011;63176;52.678;13.250;2023-05-10T11:58:33;1.60;;;1.50;;
7289;SDS011;63176;52.678;13.250;2023-05-10T12:00:59;4.17;;;2.23;;
7289;SDS011;63176;52.678;13.250;2023-05-10T12:03:26;1.90;;;1.70;;
7289;SDS011;63176;52.678;13.250;2023-05-10T12:05:53;3.57;;;2.00;;
7289;SDS011;63176;52.678;13.250;2023-05-10T12:08:20;2.20;;;2.00;;
7289;SDS011;63176;52.678;13.250;2023-05-10T12:10:48;3.10;;;2.10;;
7289;SDS011;63176;52.678;13.250;2023-05-10T12:13:14;1.60;;;1.50;;
7289;SDS011;63176;52.678;13.250;2023-05-10T12:15:40;9.80;;;2.30;;
7289;SDS011;63176;52.678;13.250;2023-05-10T12:18:10;2.93;;;1.77;;
7289;SDS011;63176;52.678;13.250;2023-05-10T12:20:37;1.63;;;1.53;;
7289;SDS011;63176;52.678;13.250;2023-05-10T12:23:03;2.80;;;1.90;;
7289;SDS011;63176;52.678;13.250;2023-05-10T12:25:31;6.00;;;2.00;;
7289;SDS011;63176;52.678;13.250;2023-05-10T12:27:58;2.40;;;1.87;;
7289;SDS011;63176;52.678;13.250;2023-05-10T12:30:28;1.57;;;1.47;;
7289;SDS011;63176;52.678;13.250;2023-05-10T12:32:59;1.97;;;1.83;;
7289;SDS011;63176;52.678;13.250;2023-05-10T12:35:46;2.07;;;1.97;;
7289;SDS011;63176;52.678;13.250;2023-05-10T12:38:29;1.93;;;1.60;;
7289;SDS011;63176;52.678;13.250;2023-05-10T12:40:59;1.63;;;1.53;;
7289;SDS011;63176;52.678;13.250;2023-05-10T12:43:35;3.60;;;1.90;;
7289;SDS011;63176;52.678;13.250;2023-05-10T12:46:05;2.70;;;1.63;;
7289;SDS011;63176;52.678;13.250;2023-05-10T12:48:31;2.50;;;1.70;;
7289;SDS011;63176;52.678;13.250;2023-05-10T12:50:58;2.83;;;1.70;;
7289;SDS011;63176;52.678;13.250;2023-05-10T12:53:25;1.97;;;1.77;;
7289;SDS011;63176;52.678;13.250;2023-05-10T12:55:50;1.73;;;1.53;;
7289;SDS011;63176;52.678;13.250;2023-05-10T12:58:16;4.47;;;1.97;;
7289;SDS011;63176;52.678;13.250;2023-05-10T13:00:42;2.33;;;1.63;;
7289;SDS011;63176;52.678;13.250;2023-05-10T13:03:08;3.20;;;1.87;;
7289;SDS011;63176;52.678;13.250;2023-05-10T13:05:35;4.90;;;1.83;;
7289;SDS011;63176;52.678;13.250;2023-05-10T13:08:01;1.83;;;1.73;;
7289;SDS011;63176;52.678;13.250;2023-05-10T13:10:28;2.10;;;1.43;;
7289;SDS011;63176;52.678;13.250;2023-05-10T13:12:55;1.67;;;1.33;;
7289;SDS011;63176;52.678;13.250;2023-05-10T13:15:21;1.63;;;1.50;;
7289;SDS011;63176;52.678;13.250;2023-05-10T13:17:47;2.50;;;1.77;;
7289;SDS011;63176;52.678;13.250;2023-05-10T13:20:12;4.63;;;1.53;;
7289;SDS011;63176;52.678;13.250;2023-05-10T13:22:40;4.40;;;1.10;;
7289;SDS011;63176;52.678;13.250;2023-05-10T13:25:06;3.47;;;1.63;;
7289;SDS011;63176;52.678;13.250;2023-05-10T13:27:32;2.40;;;2.10;;
7289;SDS011;63176;52.678;13.250;2023-05-10T13:29:58;3.13;;;1.53;;
7289;SDS011;63176;52.678;13.250;2023-05-10T13:32:24;1.87;;;1.77;;
7289;SDS011;63176;52.678;13.250;2023-05-10T13:34:50;1.93;;;1.80;;
7289;SDS011;63176;52.678;13.250;2023-05-10T13:37:16;1.80;;;1.70;;
7289;SDS011;63176;52.678;13.250;2023-05-10T13:39:42;2.80;;;2.00;;
7289;SDS011;63176;52.678;13.250;2023-05-10T13:42:07;1.63;;;1.53;;
7289;SDS011;63176;52.678;13.250;2023-05-10T13:44:33;2.67;;;1.90;;
7289;SDS011;63176;52.678;13.250;2023-05-10T13:46:59;1.80;;;1.70;;
7289;SDS011;63176;52.678;13.250;2023-05-10T13:49:24;1.70;;;1.60;;
7289;SDS011;63176;52.678;13.250;2023-05-10T13:51:50;2.40;;;1.70;;
7289;SDS011;63176;52.678;13.250;2023-05-10T13:54:16;1.93;;;1.83;;
7289;SDS011;63176;52.678;13.250;2023-05-10T13:56:44;3.10;;;2.10;;
7289;SDS011;63176;52.678;13.250;2023-05-10T13:59:12;1.87;;;1.70;;
7289;SDS011;63176;52.678;13.250;2023-05-10T14:01:39;3.33;;;1.73;;
7289;SDS011;63176;52.678;13.250;2023-05-10T14:04:05;1.77;;;1.67;;
7289;SDS011;63176;52.678;13.250;2023-05-10T14:06:32;2.20;;;1.70;;
7289;SDS011;63176;52.678;13.250;2023-05-10T14:08:58;2.13;;;2.03;;
7289;SDS011;63176;52.678;13.250;2023-05-10T14:11:23;2.27;;;2.07;;
7289;SDS011;63176;52.678;13.250;2023-05-10T14:13:49;3.27;;;1.50;;
7289;SDS011;63176;52.678;13.250;2023-05-10T14:16:15;1.73;;;1.63;;
7289;SDS011;63176;52.678;13.250;2023-05-10T14:18:40;1.97;;;1.77;;
7289;SDS011;63176;52.678;13.250;2023-05-10T14:21:06;11.27;;;1.90;;
7289;SDS011;63176;52.678;13.250;2023-05-10T14:23:31;1.90;;;1.60;;
7289;SDS011;63176;52.678;13.250;2023-05-10T14:25:57;3.73;;;1.50;;
7289;SDS011;63176;52.678;13.250;2023-05-10T14:28:23;3.17;;;1.90;;
7289;SDS011;63176;52.678;13.250;2023-05-10T14:30:50;1.70;;;1.60;;
7289;SDS011;63176;52.678;13.250;2023-05-10T14:33:16;4.27;;;1.67;;
7289;SDS011;63176;52.678;13.250;2023-05-10T14:35:42;4.33;;;2.03;;
7289;SDS011;63176;52.678;13.250;2023-05-10T14:38:08;3.83;;;1.97;;
7289;SDS011;63176;52.678;13.250;2023-05-10T14:40:33;3.93;;;1.50;;
7289;SDS011;63176;52.678;13.250;2023-05-10T14:42:59;1.90;;;1.73;;
7289;SDS011;63176;52.678;13.250;2023-05-10T14:45:25;3.37;;;1.50;;
7289;SDS011;63176;52.678;13.250;2023-05-10T14:47:50;1.67;;;1.57;;
7289;SDS011;63176;52.678;13.250;2023-05-10T14:50:16;2.07;;;1.87;;
7289;SDS011;63176;52.678;13.250;2023-05-10T14:52:42;2.53;;;1.50;;
7289;SDS011;63176;52.678;13.250;2023-05-10T14:55:08;3.70;;;1.97;;
7289;SDS011;63176;52.678;13.250;2023-05-10T14:57:34;2.70;;;1.47;;
7289;SDS011;63176;52.678;13.250;2023-05-10T15:00:00;1.50;;;1.40;;
7289;SDS011;63176;52.678;13.250;2023-05-10T15:02:25;1.40;;;1.30;;
7289;SDS011;63176;52.678;13.250;2023-05-10T15:04:51;1.77;;;1.30;;
7289;SDS011;63176;52.678;13.250;2023-05-10T15:07:17;2.30;;;1.37;;
7289;SDS011;63176;52.678;13.250;2023-05-10T15:09:43;1.40;;;1.30;;
7289;SDS011;63176;52.678;13.250;2023-05-10T15:12:09;2.40;;;1.60;;
7289;SDS011;63176;52.678;13.250;2023-05-10T15:14:35;1.90;;;1.70;;
7289;SDS011;63176;52.678;13.250;2023-05-10T15:17:01;4.10;;;1.50;;
7289;SDS011;63176;52.678;13.250;2023-05-10T15:19:27;6.63;;;1.57;;
7289;SDS011;63176;52.678;13.250;2023-05-10T15:21:54;1.40;;;1.30;;
7289;SDS011;63176;52.678;13.250;2023-05-10T15:24:20;3.03;;;1.70;;